Meteo

Meteo Humidity IN41.0% MH0/MH02020-05-29 21:20:00
Meteo Humidity OUT44.0% MH1/MH12020-05-29 21:20:00
Meteo Pressure1032.8hPa MP0/MP02020-05-29 21:20:00
Rain (mm)1634.4mm MR0/MR02020-05-29 21:20:00
Meteo Temperature IN23.5°C MT0/MT02020-05-29 21:20:00
Meteo Temperature OUT14.3°C MT1/MT12020-05-29 21:20:00
Average wind speed1.4m/s MW0/MW02020-05-29 21:20:00
Wind direction315.0° MD0/MD02020-05-29 21:20:00
Wind gust speed1.7m/s MW1/MW12020-05-29 21:20:00

Ground Floor

Kitchen20.2°C TA1/P102020-05-29 21:47:04
Heating output20.5°C TA2/P202020-05-29 21:47:04
Garage19.7°C TA3/P302020-05-29 21:47:04
H.W.D.T.162.6°C TA7/P712020-05-29 21:47:04
Passage°C TA5/P51
Tech. room17.1°C TA0/X502020-05-29 21:47:04
Yard-0.1°C TA4/P402020-05-29 21:47:04
Cold corner-0.1°C TA6/P602020-05-29 21:47:04

First Floor

Bathroom22.7°C TB7/X112020-05-29 21:47:04
Kitchen22.2°C TB5/X302020-05-29 21:47:04
Room21.7°C TB6/X102020-05-29 21:47:04

Second Floor

Storage-room20.0°C TC5/P502020-05-29 21:47:04
Corridor19.2°C TC2/P212020-05-29 21:47:04
Attic18.1°C TC3/P322020-05-29 21:47:04
Cold Corner16.2°C TC7/X602020-05-29 21:47:04
Street14.7°C TC1/P112020-05-29 21:47:04
Server CPU 032.0°C C00/C002020-05-29 21:47:04
Server CPU 126.0°C C01/C012020-05-29 21:47:04
HDD S2T ST2000VX002°C HS2T/C31
HDD S4T ST4000DX00130.0°C HS4T/C332020-05-29 21:47:04
HDD W4T WD40EFRX32.0°C HW4T/C322020-05-29 21:47:04
HDD T3T ST3000VX000°C HT3T/C29
HDD Y4T ST4000VN008 - Y°C HY4T/C49
HDD Z4T ST4000VN008 - Z24.0°C HZ4T/C482020-05-29 21:47:04

Now : 2020-05-29 21:48:53